createdAt,value
2017-03-24T05:52:00.505Z,1021.80
2017-03-24T05:53:05.500Z,1021.80
2017-03-24T05:54:10.782Z,1021.77
2017-03-24T05:55:16.113Z,1021.73
2017-03-24T07:34:21.255Z,1022.42
2017-03-24T07:35:25.628Z,1022.59
2017-03-24T07:36:29.986Z,1022.62
2017-03-24T07:37:34.380Z,1022.66
2017-03-24T07:38:38.741Z,1022.63
2017-03-24T07:39:43.101Z,1022.61
2017-03-24T07:40:47.494Z,1022.65
2017-03-24T07:41:51.905Z,1022.59
2017-03-24T07:42:56.296Z,1022.58
2017-03-24T07:44:00.705Z,1022.65
2017-03-24T07:45:05.953Z,1022.64
2017-03-24T07:46:10.375Z,1022.68
2017-03-24T07:47:14.812Z,1022.63
2017-03-24T07:48:19.697Z,1022.63
2017-03-24T07:49:24.067Z,1022.74
2017-03-24T07:50:28.440Z,1022.71
2017-03-24T07:51:32.867Z,1022.66
2017-03-24T07:52:37.292Z,1022.65
2017-03-24T07:53:41.722Z,1022.71
2017-03-24T07:54:46.189Z,1022.65
2017-03-24T07:55:50.787Z,1022.70
2017-03-24T07:56:55.206Z,1022.73
2017-03-24T07:57:59.608Z,1022.74
2017-03-24T07:59:04.021Z,1022.84
2017-03-24T08:00:08.398Z,1022.83
2017-03-24T08:01:12.864Z,1022.83
2017-03-24T08:02:17.179Z,1022.79
2017-03-24T08:03:21.599Z,1022.88
2017-03-24T08:04:26.001Z,1022.78
2017-03-24T08:05:30.411Z,1022.85
2017-03-24T08:06:34.800Z,1022.80
2017-03-24T08:07:39.224Z,1022.78
2017-03-24T08:08:43.598Z,1022.74
2017-03-24T08:09:47.953Z,1022.72
2017-03-24T08:10:52.240Z,1022.81
2017-03-24T08:11:56.577Z,1022.76
2017-03-24T08:13:01.434Z,1022.88
2017-03-24T08:14:05.910Z,1022.73
2017-03-24T08:15:10.309Z,1022.74
2017-03-24T08:16:14.670Z,1022.81
2017-03-24T08:17:19.056Z,1022.76
2017-03-24T08:18:23.503Z,1022.81
2017-03-24T08:19:28.145Z,1022.83
2017-03-24T08:20:32.758Z,1022.86
2017-03-24T08:21:37.206Z,1022.79
2017-03-24T08:22:41.609Z,1022.75
2017-03-24T08:23:46.021Z,1022.74
2017-03-24T08:24:50.405Z,1022.76
2017-03-24T08:25:54.850Z,1022.78
2017-03-24T08:26:59.214Z,1022.66
2017-03-24T08:28:03.609Z,1022.79
2017-03-24T08:29:07.960Z,1022.71
2017-03-24T08:30:12.393Z,1022.74
2017-03-24T08:31:16.769Z,1022.83
2017-03-24T08:32:21.210Z,1022.85
2017-03-24T08:33:25.651Z,1022.81
2017-03-24T08:34:30.016Z,1022.71
2017-03-24T08:35:34.501Z,1022.81
2017-03-24T08:36:38.889Z,1022.73
2017-03-24T08:37:43.288Z,1022.83
2017-03-24T08:38:47.720Z,1022.73
2017-03-24T08:39:52.148Z,1022.92
2017-03-24T08:40:56.607Z,1022.85
2017-03-24T08:42:01.019Z,1022.68
2017-03-24T09:55:55.670Z,1023.23
2017-03-24T09:57:00.216Z,1023.07
2017-03-24T09:58:04.631Z,1023.02
2017-03-24T09:59:09.034Z,1023.04
2017-03-24T10:00:13.528Z,1023.09
2017-03-24T10:01:17.980Z,1023.09
2017-03-24T10:02:22.374Z,1023.06
2017-03-24T10:03:26.838Z,1023.08
2017-03-24T10:04:32.454Z,1023.04
2017-03-24T10:05:37.385Z,1023.07
2017-03-24T10:06:41.703Z,1023.05
2017-03-24T10:07:46.620Z,1023.20
2017-03-24T10:08:51.072Z,1023.13
2017-03-24T10:09:55.719Z,1023.18
2017-03-24T10:11:00.228Z,1023.10
2017-03-24T10:12:04.958Z,1023.09
2017-03-24T10:13:09.602Z,1023.11
2017-03-24T10:14:13.968Z,1023.12
2017-03-24T10:15:18.511Z,1023.14
2017-03-24T10:16:23.292Z,1023.18
2017-03-24T10:17:27.809Z,1023.07
2017-03-24T10:18:32.174Z,1023.15
2017-03-24T10:19:36.834Z,1023.19
2017-03-24T10:20:41.528Z,1023.12
2017-03-24T10:21:45.908Z,1023.13
